sensor_id;sensor_type;location;lat;lon;timestamp;pressure;altitude;pressure_sealevel;temperature;humidity
61786;BME280;47692;53.714;11.372;2023-02-18T00:01:55;100861.22;;;5.64;83.53
61786;BME280;47692;53.714;11.372;2023-02-18T00:04:20;100883.66;;;5.62;83.35
61786;BME280;47692;53.714;11.372;2023-02-18T00:06:46;100895.75;;;5.63;83.52
61786;BME280;47692;53.714;11.372;2023-02-18T00:09:11;100877.63;;;5.64;82.72
61786;BME280;47692;53.714;11.372;2023-02-18T00:11:37;100888.00;;;5.64;82.73
61786;BME280;47692;53.714;11.372;2023-02-18T00:14:05;100884.53;;;5.62;82.89
61786;BME280;47692;53.714;11.372;2023-02-18T00:16:30;100881.94;;;5.58;83.33
61786;BME280;47692;53.714;11.372;2023-02-18T00:18:57;100874.16;;;5.53;84.20
61786;BME280;47692;53.714;11.372;2023-02-18T00:21:23;100871.56;;;5.52;84.47
61786;BME280;47692;53.714;11.372;2023-02-18T00:23:49;100875.91;;;5.49;84.67
61786;BME280;47692;53.714;11.372;2023-02-18T00:26:16;100876.75;;;5.48;85.17
61786;BME280;47692;53.714;11.372;2023-02-18T00:28:42;100886.25;;;5.45;85.43
61786;BME280;47692;53.714;11.372;2023-02-18T00:31:15;100873.31;;;5.43;85.32
61786;BME280;47692;53.714;11.372;2023-02-18T00:33:41;100876.75;;;5.39;85.23
61786;BME280;47692;53.714;11.372;2023-02-18T00:36:09;100887.97;;;5.35;84.97
61786;BME280;47692;53.714;11.372;2023-02-18T00:38:35;100869.81;;;5.38;84.59
61786;BME280;47692;53.714;11.372;2023-02-18T00:41:01;100862.94;;;5.39;84.80
61786;BME280;47692;53.714;11.372;2023-02-18T00:43:27;100870.72;;;5.31;84.74
61786;BME280;47692;53.714;11.372;2023-02-18T00:45:52;100875.00;;;5.26;85.55
61786;BME280;47692;53.714;11.372;2023-02-18T00:48:18;100874.13;;;5.24;85.48
61786;BME280;47692;53.714;11.372;2023-02-18T00:50:44;100875.00;;;5.23;85.14
61786;BME280;47692;53.714;11.372;2023-02-18T00:53:09;100868.09;;;5.25;85.18
61786;BME280;47692;53.714;11.372;2023-02-18T00:55:42;100868.09;;;5.20;85.58
61786;BME280;47692;53.714;11.372;2023-02-18T00:58:11;100862.91;;;5.18;85.74
61786;BME280;47692;53.714;11.372;2023-02-18T01:00:37;100875.84;;;5.12;86.07
61786;BME280;47692;53.714;11.372;2023-02-18T01:03:03;100867.19;;;5.13;86.14
61786;BME280;47692;53.714;11.372;2023-02-18T01:05:30;100858.59;;;5.10;86.27
61786;BME280;47692;53.714;11.372;2023-02-18T01:07:55;100874.94;;;5.07;86.70
61786;BME280;47692;53.714;11.372;2023-02-18T01:10:21;100871.50;;;5.02;86.75
61786;BME280;47692;53.714;11.372;2023-02-18T01:12:46;100874.94;;;5.07;86.50
61786;BME280;47692;53.714;11.372;2023-02-18T01:15:14;100887.91;;;5.04;86.30
61786;BME280;47692;53.714;11.372;2023-02-18T01:17:39;100890.47;;;5.04;86.70
61786;BME280;47692;53.714;11.372;2023-02-18T01:20:05;100893.91;;;4.97;87.17
61786;BME280;47692;53.714;11.372;2023-02-18T01:22:31;100885.28;;;4.99;87.41
61786;BME280;47692;53.714;11.372;2023-02-18T01:24:56;100890.47;;;4.95;87.39
61786;BME280;47692;53.714;11.372;2023-02-18T01:27:21;100889.59;;;4.94;87.69
61786;BME280;47692;53.714;11.372;2023-02-18T01:29:47;100897.34;;;4.96;87.84
61786;BME280;47692;53.714;11.372;2023-02-18T01:32:12;100898.22;;;4.95;87.76
61786;BME280;47692;53.714;11.372;2023-02-18T01:34:38;100905.09;;;4.96;88.12
61786;BME280;47692;53.714;11.372;2023-02-18T01:37:03;100895.63;;;4.92;88.50
61786;BME280;47692;53.714;11.372;2023-02-18T01:39:28;100905.94;;;4.87;88.73
61786;BME280;47692;53.714;11.372;2023-02-18T01:41:54;100900.78;;;4.92;88.74
61786;BME280;47692;53.714;11.372;2023-02-18T01:44:22;100892.16;;;4.90;89.12
61786;BME280;47692;53.714;11.372;2023-02-18T01:46:48;100898.19;;;4.85;89.02
61786;BME280;47692;53.714;11.372;2023-02-18T01:49:25;100893.88;;;4.84;89.19
61786;BME280;47692;53.714;11.372;2023-02-18T01:51:56;100905.06;;;4.80;89.67
61786;BME280;47692;53.714;11.372;2023-02-18T01:54:29;100889.53;;;4.82;89.70
61786;BME280;47692;53.714;11.372;2023-02-18T01:57:03;100893.00;;;4.78;89.82
61786;BME280;47692;53.714;11.372;2023-02-18T01:59:32;100892.97;;;4.79;89.94
61786;BME280;47692;53.714;11.372;2023-02-18T02:02:00;100880.06;;;4.76;90.37
61786;BME280;47692;53.714;11.372;2023-02-18T02:04:25;100890.41;;;4.76;90.58
61786;BME280;47692;53.714;11.372;2023-02-18T02:06:51;100884.38;;;4.79;90.75
61786;BME280;47692;53.714;11.372;2023-02-18T02:09:18;100885.19;;;4.70;90.61
61786;BME280;47692;53.714;11.372;2023-02-18T02:24:07;100871.34;;;4.65;91.62
61786;BME280;47692;53.714;11.372;2023-02-18T02:40:11;100860.16;;;4.64;92.67
61786;BME280;47692;53.714;11.372;2023-02-18T02:45:21;100865.31;;;4.58;92.85
61786;BME280;47692;53.714;11.372;2023-02-18T02:53:12;100850.69;;;4.62;93.45
61786;BME280;47692;53.714;11.372;2023-02-18T02:55:38;100855.84;;;4.63;93.58
61786;BME280;47692;53.714;11.372;2023-02-18T02:58:04;100857.56;;;4.60;93.85
61786;BME280;47692;53.714;11.372;2023-02-18T03:00:43;100854.13;;;4.61;93.98
61786;BME280;47692;53.714;11.372;2023-02-18T03:03:38;100857.56;;;4.60;93.52
61786;BME280;47692;53.714;11.372;2023-02-18T03:06:22;100857.56;;;4.60;93.53
61786;BME280;47692;53.714;11.372;2023-02-18T03:09:03;100852.38;;;4.57;93.84
61786;BME280;47692;53.714;11.372;2023-02-18T03:11:42;100866.13;;;4.52;94.18
61786;BME280;47692;53.714;11.372;2023-02-18T03:14:13;100861.00;;;4.54;94.26
61786;BME280;47692;53.714;11.372;2023-02-18T03:16:58;100866.13;;;4.49;94.63
61786;BME280;47692;53.714;11.372;2023-02-18T03:19:34;100862.69;;;4.50;94.89
61786;BME280;47692;53.714;11.372;2023-02-18T03:22:09;100859.19;;;4.42;95.23
61786;BME280;47692;53.714;11.372;2023-02-18T03:24:41;100866.97;;;4.39;95.55
61786;BME280;47692;53.714;11.372;2023-02-18T03:27:30;100864.34;;;4.36;95.52
61786;BME280;47692;53.714;11.372;2023-02-18T03:29:59;100872.94;;;4.35;96.04
61786;BME280;47692;53.714;11.372;2023-02-18T03:32:27;100875.53;;;4.33;96.39
61786;BME280;47692;53.714;11.372;2023-02-18T03:34:58;100876.38;;;4.31;96.74
61786;BME280;47692;53.714;11.372;2023-02-18T03:37:25;100866.06;;;4.34;96.62
61786;BME280;47692;53.714;11.372;2023-02-18T03:39:54;100872.91;;;4.29;96.81
61786;BME280;47692;53.714;11.372;2023-02-18T03:42:25;100866.91;;;4.30;97.29
61786;BME280;47692;53.714;11.372;2023-02-18T03:44:51;100860.03;;;4.30;97.42
61786;BME280;47692;53.714;11.372;2023-02-18T03:47:17;100865.16;;;4.24;98.07
61786;BME280;47692;53.714;11.372;2023-02-18T03:49:42;100863.41;;;4.25;98.00
61786;BME280;47692;53.714;11.372;2023-02-18T03:52:08;100865.13;;;4.23;98.46
61786;BME280;47692;53.714;11.372;2023-02-18T03:54:33;100854.78;;;4.21;98.92
61786;BME280;47692;53.714;11.372;2023-02-18T03:56:58;100867.72;;;4.23;99.10
61786;BME280;47692;53.714;11.372;2023-02-18T03:59:24;100865.16;;;4.24;99.14
61786;BME280;47692;53.714;11.372;2023-02-18T04:01:49;100866.81;;;4.14;99.47
61786;BME280;47692;53.714;11.372;2023-02-18T04:04:14;100867.66;;;4.16;99.78
61786;BME280;47692;53.714;11.372;2023-02-18T04:06:39;100862.53;;;4.18;99.80
61786;BME280;47692;53.714;11.372;2023-02-18T04:09:05;100865.13;;;4.23;100.00
61786;BME280;47692;53.714;11.372;2023-02-18T04:11:35;100872.03;;;4.19;100.00
61786;BME280;47692;53.714;11.372;2023-02-18T04:14:00;100867.72;;;4.19;100.00
61786;BME280;47692;53.714;11.372;2023-02-18T04:16:25;100867.66;;;4.16;100.00
61786;BME280;47692;53.714;11.372;2023-02-18T04:18:51;100860.84;;;4.22;100.00
61786;BME280;47692;53.714;11.372;2023-02-18T04:21:16;100863.41;;;4.22;100.00
61786;BME280;47692;53.714;11.372;2023-02-18T04:23:41;100860.81;;;4.18;100.00
61786;BME280;47692;53.714;11.372;2023-02-18T04:26:07;100866.84;;;4.25;100.00
61786;BME280;47692;53.714;11.372;2023-02-18T04:28:32;100859.13;;;4.27;100.00
61786;BME280;47692;53.714;11.372;2023-02-18T04:30:57;100855.66;;;4.26;100.00
61786;BME280;47692;53.714;11.372;2023-02-18T04:33:23;100855.69;;;4.28;100.00
61786;BME280;47692;53.714;11.372;2023-02-18T04:35:48;100866.06;;;4.37;100.00
61786;BME280;47692;53.714;11.372;2023-02-18T04:38:13;100860.03;;;4.35;100.00
61786;BME280;47692;53.714;11.372;2023-02-18T04:40:39;100854.00;;;4.37;100.00
61786;BME280;47692;53.714;11.372;2023-02-18T04:43:04;100853.16;;;4.39;100.00
61786;BME280;47692;53.714;11.372;2023-02-18T04:45:29;100860.91;;;4.39;100.00
61786;BME280;47692;53.714;11.372;2023-02-18T04:47:55;100852.28;;;4.41;100.00
61786;BME280;47692;53.714;11.372;2023-02-18T04:50:20;100850.59;;;4.43;100.00
61786;BME280;47692;53.714;11.372;2023-02-18T04:52:46;100848.88;;;4.45;100.00
61786;BME280;47692;53.714;11.372;2023-02-18T04:55:11;100855.78;;;4.48;100.00
61786;BME280;47692;53.714;11.372;2023-02-18T04:57:37;100848.88;;;4.48;100.00
61786;BME280;47692;53.714;11.372;2023-02-18T05:00:04;100847.19;;;4.50;100.00
61786;BME280;47692;53.714;11.372;2023-02-18T05:02:31;100836.00;;;4.51;99.70
61786;BME280;47692;53.714;11.372;2023-02-18T05:04:56;100841.16;;;4.53;99.78
61786;BME280;47692;53.714;11.372;2023-02-18T05:07:22;100836.81;;;4.47;99.71
61786;BME280;47692;53.714;11.372;2023-02-18T05:09:47;100823.06;;;4.51;99.89
61786;BME280;47692;53.714;11.372;2023-02-18T05:12:12;100839.41;;;4.47;99.75
61786;BME280;47692;53.714;11.372;2023-02-18T05:14:38;100835.09;;;4.52;99.18
61786;BME280;47692;53.714;11.372;2023-02-18T05:17:03;100831.66;;;4.53;98.89
61786;BME280;47692;53.714;11.372;2023-02-18T05:19:28;100834.25;;;4.52;98.34
61786;BME280;47692;53.714;11.372;2023-02-18T05:21:54;100840.28;;;4.52;98.23
61786;BME280;47692;53.714;11.372;2023-02-18T05:24:19;100842.03;;;4.57;97.87
61786;BME280;47692;53.714;11.372;2023-02-18T05:26:44;100831.69;;;4.57;97.16
61786;BME280;47692;53.714;11.372;2023-02-18T05:29:10;100820.44;;;4.50;96.94
61786;BME280;47692;53.714;11.372;2023-02-18T05:31:35;100829.06;;;4.47;96.82
61786;BME280;47692;53.714;11.372;2023-02-18T05:34:02;100817.88;;;4.51;96.30
61786;BME280;47692;53.714;11.372;2023-02-18T05:36:28;100817.00;;;4.46;96.14
61786;BME280;47692;53.714;11.372;2023-02-18T05:38:53;100818.75;;;4.52;95.71
61786;BME280;47692;53.714;11.372;2023-02-18T05:41:19;100830.81;;;4.51;94.94
61786;BME280;47692;53.714;11.372;2023-02-18T05:43:44;100829.09;;;4.53;93.42
61786;BME280;47692;53.714;11.372;2023-02-18T05:46:28;100827.41;;;4.60;92.55
61786;BME280;47692;53.714;11.372;2023-02-18T05:48:54;100823.09;;;4.58;92.17
61786;BME280;47692;53.714;11.372;2023-02-18T05:51:19;100824.78;;;4.59;91.42
61786;BME280;47692;53.714;11.372;2023-02-18T05:53:44;100818.75;;;4.60;91.11
61786;BME280;47692;53.714;11.372;2023-02-18T05:56:10;100821.34;;;4.60;90.87
61786;BME280;47692;53.714;11.372;2023-02-18T05:58:35;100829.97;;;4.65;90.36
61786;BME280;47692;53.714;11.372;2023-02-18T06:01:00;100825.69;;;4.65;90.19
61786;BME280;47692;53.714;11.372;2023-02-18T06:03:26;100834.31;;;4.71;89.68
61786;BME280;47692;53.714;11.372;2023-02-18T06:05:51;100827.41;;;4.68;89.61
61786;BME280;47692;53.714;11.372;2023-02-18T06:08:17;100832.59;;;4.68;89.58
61786;BME280;47692;53.714;11.372;2023-02-18T06:10:44;100831.75;;;4.69;89.63
61786;BME280;47692;53.714;11.372;2023-02-18T06:13:09;100836.91;;;4.69;90.22
61786;BME280;47692;53.714;11.372;2023-02-18T06:15:34;100825.69;;;4.68;90.86
61786;BME280;47692;53.714;11.372;2023-02-18T06:18:00;100823.09;;;4.67;91.68
61786;BME280;47692;53.714;11.372;2023-02-18T06:20:25;100823.97;;;4.66;92.30
61786;BME280;47692;53.714;11.372;2023-02-18T06:22:50;100823.09;;;4.67;92.81
61786;BME280;47692;53.714;11.372;2023-02-18T06:25:16;100814.50;;;4.66;93.81
61786;BME280;47692;53.714;11.372;2023-02-18T06:27:41;100812.75;;;4.65;94.26
61786;BME280;47692;53.714;11.372;2023-02-18T06:30:07;100821.38;;;4.63;94.92
61786;BME280;47692;53.714;11.372;2023-02-18T06:32:33;100817.91;;;4.61;95.99
61786;BME280;47692;53.714;11.372;2023-02-18T06:34:58;100813.59;;;4.58;97.04
61786;BME280;47692;53.714;11.372;2023-02-18T06:37:23;100804.13;;;4.63;98.58
61786;BME280;47692;53.714;11.372;2023-02-18T06:39:49;100800.66;;;4.57;99.29
61786;BME280;47692;53.714;11.372;2023-02-18T06:42:14;100803.25;;;4.58;100.00
61786;BME280;47692;53.714;11.372;2023-02-18T06:44:39;100792.03;;;4.51;100.00
61786;BME280;47692;53.714;11.372;2023-02-18T06:47:05;100791.19;;;4.54;100.00
61786;BME280;47692;53.714;11.372;2023-02-18T06:49:30;100792.00;;;4.50;100.00
61786;BME280;47692;53.714;11.372;2023-02-18T06:51:56;100785.97;;;4.45;100.00
61786;BME280;47692;53.714;11.372;2023-02-18T06:54:21;100773.03;;;4.40;100.00
61786;BME280;47692;53.714;11.372;2023-02-18T06:56:46;100777.31;;;4.40;100.00
61786;BME280;47692;53.714;11.372;2023-02-18T06:59:12;100773.00;;;4.35;100.00
61786;BME280;47692;53.714;11.372;2023-02-18T07:01:38;100770.44;;;4.37;100.00
61786;BME280;47692;53.714;11.372;2023-02-18T07:04:03;100767.84;;;4.37;100.00
61786;BME280;47692;53.714;11.372;2023-02-18T07:06:28;100754.91;;;4.37;100.00
61786;BME280;47692;53.714;11.372;2023-02-18T07:08:54;100759.22;;;4.38;100.00
61786;BME280;47692;53.714;11.372;2023-02-18T07:11:19;100756.66;;;4.40;100.00
61786;BME280;47692;53.714;11.372;2023-02-18T07:13:45;100767.84;;;4.37;100.00
61786;BME280;47692;53.714;11.372;2023-02-18T07:16:10;100757.53;;;4.40;100.00
61786;BME280;47692;53.714;11.372;2023-02-18T07:18:35;100755.78;;;4.39;100.00
61786;BME280;47692;53.714;11.372;2023-02-18T07:21:01;100745.44;;;4.42;100.00
61786;BME280;47692;53.714;11.372;2023-02-18T07:23:26;100747.19;;;4.43;100.00
61786;BME280;47692;53.714;11.372;2023-02-18T07:25:51;100747.19;;;4.42;100.00
61786;BME280;47692;53.714;11.372;2023-02-18T07:28:17;100747.22;;;4.46;100.00
61786;BME280;47692;53.714;11.372;2023-02-18T07:30:43;100737.72;;;4.50;100.00
61786;BME280;47692;53.714;11.372;2023-02-18T07:33:08;100735.16;;;4.51;100.00
61786;BME280;47692;53.714;11.372;2023-02-18T07:35:33;100733.44;;;4.57;100.00
61786;BME280;47692;53.714;11.372;2023-02-18T07:37:59;100736.00;;;4.60;100.00
61786;BME280;47692;53.714;11.372;2023-02-18T07:40:24;100738.59;;;4.57;100.00
61786;BME280;47692;53.714;11.372;2023-02-18T07:42:49;100730.00;;;4.58;100.00
61786;BME280;47692;53.714;11.372;2023-02-18T07:45:15;100736.03;;;4.57;100.00
61786;BME280;47692;53.714;11.372;2023-02-18T07:47:40;100737.75;;;4.62;100.00
61786;BME280;47692;53.714;11.372;2023-02-18T07:50:07;100734.31;;;4.62;100.00
61786;BME280;47692;53.714;11.372;2023-02-18T07:52:33;100738.63;;;4.63;100.00
61786;BME280;47692;53.714;11.372;2023-02-18T07:54:59;100743.78;;;4.66;100.00
61786;BME280;47692;53.714;11.372;2023-02-18T07:57:24;100730.84;;;4.64;100.00
61786;BME280;47692;53.714;11.372;2023-02-18T07:59:49;100735.19;;;4.64;100.00
61786;BME280;47692;53.714;11.372;2023-02-18T08:02:22;100738.63;;;4.64;100.00
61786;BME280;47692;53.714;11.372;2023-02-18T08:04:48;100740.34;;;4.64;100.00
61786;BME280;47692;53.714;11.372;2023-02-18T08:07:15;100736.91;;;4.68;100.00
61786;BME280;47692;53.714;11.372;2023-02-18T08:09:40;100736.06;;;4.67;100.00
61786;BME280;47692;53.714;11.372;2023-02-18T08:12:06;100732.59;;;4.64;100.00
61786;BME280;47692;53.714;11.372;2023-02-18T08:14:32;100727.41;;;4.68;100.00
61786;BME280;47692;53.714;11.372;2023-02-18T08:16:58;100724.81;;;4.61;100.00
61786;BME280;47692;53.714;11.372;2023-02-18T08:19:23;100711.88;;;4.62;100.00
61786;BME280;47692;53.714;11.372;2023-02-18T08:21:48;100704.97;;;4.60;100.00
61786;BME280;47692;53.714;11.372;2023-02-18T08:24:14;100701.53;;;4.55;100.00
61786;BME280;47692;53.714;11.372;2023-02-18T08:26:39;100689.47;;;4.58;100.00
61786;BME280;47692;53.714;11.372;2023-02-18T08:29:05;100678.25;;;4.48;100.00
61786;BME280;47692;53.714;11.372;2023-02-18T08:31:30;100664.44;;;4.45;100.00
61786;BME280;47692;53.714;11.372;2023-02-18T08:33:57;100658.44;;;4.43;100.00
61786;BME280;47692;53.714;11.372;2023-02-18T08:36:23;100642.91;;;4.41;100.00
61786;BME280;47692;53.714;11.372;2023-02-18T08:38:48;100648.06;;;4.38;100.00
61786;BME280;47692;53.714;11.372;2023-02-18T08:41:14;100637.75;;;4.43;100.00
61786;BME280;47692;53.714;11.372;2023-02-18T08:43:40;100640.31;;;4.38;100.00
61786;BME280;47692;53.714;11.372;2023-02-18T08:46:06;100636.00;;;4.37;100.00
61786;BME280;47692;53.714;11.372;2023-02-18T08:48:31;100621.38;;;4.33;100.00
61786;BME280;47692;53.714;11.372;2023-02-18T08:50:57;100626.53;;;4.33;100.00
61786;BME280;47692;53.714;11.372;2023-02-18T08:53:23;100620.50;;;4.28;100.00
61786;BME280;47692;53.714;11.372;2023-02-18T08:55:48;100623.06;;;4.23;100.00
61786;BME280;47692;53.714;11.372;2023-02-18T08:58:14;100617.03;;;4.24;100.00
61786;BME280;47692;53.714;11.372;2023-02-18T09:00:40;100623.06;;;4.25;100.00
61786;BME280;47692;53.714;11.372;2023-02-18T09:03:06;100623.09;;;4.28;100.00
61786;BME280;47692;53.714;11.372;2023-02-18T09:05:32;100621.34;;;4.19;100.00
61786;BME280;47692;53.714;11.372;2023-02-18T09:07:57;100621.34;;;4.24;100.00
61786;BME280;47692;53.714;11.372;2023-02-18T09:10:22;100628.22;;;4.15;100.00
61786;BME280;47692;53.714;11.372;2023-02-18T09:12:48;100619.59;;;4.16;100.00
61786;BME280;47692;53.714;11.372;2023-02-18T09:15:13;100611.84;;;4.16;100.00
61786;BME280;47692;53.714;11.372;2023-02-18T09:17:38;100606.69;;;4.19;100.00
61786;BME280;47692;53.714;11.372;2023-02-18T09:20:04;100598.91;;;4.16;100.00
61786;BME280;47692;53.714;11.372;2023-02-18T09:22:30;100586.84;;;4.12;100.00
61786;BME280;47692;53.714;11.372;2023-02-18T09:24:57;100592.06;;;4.15;100.00
61786;BME280;47692;53.714;11.372;2023-02-18T09:27:22;100587.72;;;4.16;100.00
61786;BME280;47692;53.714;11.372;2023-02-18T09:29:48;100574.78;;;4.11;100.00
61786;BME280;47692;53.714;11.372;2023-02-18T09:32:15;100564.47;;;4.08;100.00
61786;BME280;47692;53.714;11.372;2023-02-18T09:34:42;100557.56;;;4.07;100.00
61786;BME280;47692;53.714;11.372;2023-02-18T09:37:07;100557.56;;;4.10;100.00
61786;BME280;47692;53.714;11.372;2023-02-18T09:39:32;100553.28;;;4.17;100.00
61786;BME280;47692;53.714;11.372;2023-02-18T09:42:06;100542.06;;;4.16;100.00
61786;BME280;47692;53.714;11.372;2023-02-18T09:44:51;100531.75;;;4.19;100.00
61786;BME280;47692;53.714;11.372;2023-02-18T09:47:30;100523.13;;;4.14;100.00
61786;BME280;47692;53.714;11.372;2023-02-18T09:50:00;100523.13;;;4.27;100.00
61786;BME280;47692;53.714;11.372;2023-02-18T09:52:31;100516.22;;;4.29;100.00
61786;BME280;47692;53.714;11.372;2023-02-18T09:54:57;100503.31;;;4.27;100.00
61786;BME280;47692;53.714;11.372;2023-02-18T09:57:27;100497.28;;;4.24;100.00
61786;BME280;47692;53.714;11.372;2023-02-18T09:59:58;100495.56;;;4.27;100.00
61786;BME280;47692;53.714;11.372;2023-02-18T10:02:25;100501.59;;;4.23;100.00
61786;BME280;47692;53.714;11.372;2023-02-18T10:04:52;100504.19;;;4.28;100.00
61786;BME280;47692;53.714;11.372;2023-02-18T10:07:26;100504.19;;;4.31;100.00
61786;BME280;47692;53.714;11.372;2023-02-18T10:09:53;100505.91;;;4.32;100.00
61786;BME280;47692;53.714;11.372;2023-02-18T10:12:22;100489.53;;;4.28;100.00
61786;BME280;47692;53.714;11.372;2023-02-18T10:14:54;100492.13;;;4.33;100.00
61786;BME280;47692;53.714;11.372;2023-02-18T10:17:22;100473.19;;;4.28;100.00
61786;BME280;47692;53.714;11.372;2023-02-18T10:19:49;100471.44;;;4.27;100.00
61786;BME280;47692;53.714;11.372;2023-02-18T10:22:16;100464.53;;;4.29;100.00
61786;BME280;47692;53.714;11.372;2023-02-18T10:24:52;100458.53;;;4.33;100.00
61786;BME280;47692;53.714;11.372;2023-02-18T10:27:24;100463.69;;;4.36;100.00
61786;BME280;47692;53.714;11.372;2023-02-18T10:29:50;100460.25;;;4.35;100.00
61786;BME280;47692;53.714;11.372;2023-02-18T10:43:02;100461.94;;;4.44;100.00
61786;BME280;47692;53.714;11.372;2023-02-18T10:51:25;100448.16;;;4.48;100.00
61786;BME280;47692;53.714;11.372;2023-02-18T10:53:52;100449.88;;;4.45;100.00
61786;BME280;47692;53.714;11.372;2023-02-18T10:56:41;100447.28;;;4.49;100.00
61786;BME280;47692;53.714;11.372;2023-02-18T10:59:22;100441.25;;;4.57;100.00
61786;BME280;47692;53.714;11.372;2023-02-18T11:01:58;100446.44;;;4.55;100.00
61786;BME280;47692;53.714;11.372;2023-02-18T11:04:36;100432.59;;;4.61;100.00
61786;BME280;47692;53.714;11.372;2023-02-18T11:12:47;100400.78;;;4.46;100.00
61786;BME280;47692;53.714;11.372;2023-02-18T11:17:38;100399.88;;;4.53;100.00
61786;BME280;47692;53.714;11.372;2023-02-18T11:22:49;100374.88;;;4.52;100.00
61786;BME280;47692;53.714;11.372;2023-02-18T11:25:27;100383.53;;;4.51;100.00
61786;BME280;47692;53.714;11.372;2023-02-18T11:28:00;100355.00;;;4.62;100.00
61786;BME280;47692;53.714;11.372;2023-02-18T11:30:30;100350.69;;;4.66;100.00
61786;BME280;47692;53.714;11.372;2023-02-18T11:33:01;100350.72;;;4.64;100.00
61786;BME280;47692;53.714;11.372;2023-02-18T11:35:29;100341.25;;;4.60;100.00
61786;BME280;47692;53.714;11.372;2023-02-18T11:37:56;100342.97;;;4.60;100.00
61786;BME280;47692;53.714;11.372;2023-02-18T11:40:31;100336.94;;;4.61;100.00
61786;BME280;47692;53.714;11.372;2023-02-18T11:45:31;100321.41;;;4.65;100.00
61786;BME280;47692;53.714;11.372;2023-02-18T11:48:06;100334.25;;;4.82;100.00
61786;BME280;47692;53.714;11.372;2023-02-18T11:50:33;100311.03;;;4.70;100.00
61786;BME280;47692;53.714;11.372;2023-02-18T11:52:58;100314.44;;;4.81;100.00
61786;BME280;47692;53.714;11.372;2023-02-18T11:55:28;100328.19;;;4.83;100.00
61786;BME280;47692;53.714;11.372;2023-02-18T11:58:00;100312.72;;;4.80;100.00
61786;BME280;47692;53.714;11.372;2023-02-18T12:00:47;100306.63;;;4.86;100.00
61786;BME280;47692;53.714;11.372;2023-02-18T12:06:03;100287.66;;;4.90;100.00
61786;BME280;47692;53.714;11.372;2023-02-18T12:08:34;100292.81;;;4.90;100.00
61786;BME280;47692;53.714;11.372;2023-02-18T12:11:08;100278.19;;;4.88;100.00
61786;BME280;47692;53.714;11.372;2023-02-18T12:13:50;100272.13;;;4.87;100.00
61786;BME280;47692;53.714;11.372;2023-02-18T12:23:56;100275.59;;;4.88;100.00
61786;BME280;47692;53.714;11.372;2023-02-18T12:26:35;100283.41;;;4.78;100.00
61786;BME280;47692;53.714;11.372;2023-02-18T12:32:16;100286.84;;;4.77;100.00
61786;BME280;47692;53.714;11.372;2023-02-18T12:43:54;100292.09;;;4.68;100.00
61786;BME280;47692;53.714;11.372;2023-02-18T12:54:25;100313.72;;;4.47;100.00
61786;BME280;47692;53.714;11.372;2023-02-18T13:11:38;100361.19;;;4.21;100.00
61786;BME280;47692;53.714;11.372;2023-02-18T13:14:24;100338.84;;;4.09;100.00
61786;BME280;47692;53.714;11.372;2023-02-18T13:16:54;100333.69;;;4.03;100.00
61786;BME280;47692;53.714;11.372;2023-02-18T13:19:26;100366.38;;;4.04;100.00
61786;BME280;47692;53.714;11.372;2023-02-18T13:21:58;100351.75;;;4.04;100.00
61786;BME280;47692;53.714;11.372;2023-02-18T13:24:44;100344.88;;;3.97;100.00
61786;BME280;47692;53.714;11.372;2023-02-18T13:32:50;100291.50;;;3.84;100.00
61786;BME280;47692;53.714;11.372;2023-02-18T13:38:14;100321.63;;;3.93;100.00
61786;BME280;47692;53.714;11.372;2023-02-18T13:40:44;100328.53;;;3.91;100.00
61786;BME280;47692;53.714;11.372;2023-02-18T13:46:03;100356.94;;;3.69;100.00
61786;BME280;47692;53.714;11.372;2023-02-18T13:48:29;100359.56;;;3.64;100.00
61786;BME280;47692;53.714;11.372;2023-02-18T13:51:02;100381.03;;;3.48;100.00
61786;BME280;47692;53.714;11.372;2023-02-18T13:53:31;100378.47;;;3.43;100.00
61786;BME280;47692;53.714;11.372;2023-02-18T13:56:07;100393.06;;;3.36;100.00
61786;BME280;47692;53.714;11.372;2023-02-18T13:58:42;100404.22;;;3.28;100.00
61786;BME280;47692;53.714;11.372;2023-02-18T14:09:02;100397.22;;;2.89;100.00
61786;BME280;47692;53.714;11.372;2023-02-18T14:11:37;100410.97;;;2.82;100.00
61786;BME280;47692;53.714;11.372;2023-02-18T14:22:31;100442.72;;;2.72;100.00
61786;BME280;47692;53.714;11.372;2023-02-18T14:25:21;100447.03;;;2.73;100.00
61786;BME280;47692;53.714;11.372;2023-02-18T14:27:50;100441.88;;;2.73;100.00
61786;BME280;47692;53.714;11.372;2023-02-18T14:30:25;100447.03;;;2.73;100.00
61786;BME280;47692;53.714;11.372;2023-02-18T14:32:57;100453.94;;;2.80;100.00
61786;BME280;47692;53.714;11.372;2023-02-18T14:35:56;100453.06;;;2.80;100.00
61786;BME280;47692;53.714;11.372;2023-02-18T14:38:39;100466.81;;;2.77;100.00
61786;BME280;47692;53.714;11.372;2023-02-18T14:46:51;100484.88;;;2.79;100.00
61786;BME280;47692;53.714;11.372;2023-02-18T14:49:27;100496.84;;;2.72;100.00
61786;BME280;47692;53.714;11.372;2023-02-18T14:51:57;100493.44;;;2.71;100.00
61786;BME280;47692;53.714;11.372;2023-02-18T14:54:24;100485.69;;;2.71;100.00
61786;BME280;47692;53.714;11.372;2023-02-18T14:57:13;100491.72;;;2.78;100.00
61786;BME280;47692;53.714;11.372;2023-02-18T14:59:41;100473.72;;;2.81;100.00
61786;BME280;47692;53.714;11.372;2023-02-18T15:04:43;100495.22;;;2.86;100.00
61786;BME280;47692;53.714;11.372;2023-02-18T15:07:10;100493.50;;;2.85;100.00
61786;BME280;47692;53.714;11.372;2023-02-18T15:09:44;100495.22;;;2.89;100.00
61786;BME280;47692;53.714;11.372;2023-02-18T15:12:15;100513.28;;;2.86;100.00
61786;BME280;47692;53.714;11.372;2023-02-18T15:14:42;100534.78;;;2.88;100.00